Time;durP1;ratioP1;P1;durP2;ratioP2;P2;SDS_P1;SDS_P2;PMS_P1;PMS_P2;Temp;Humidity;BMP_temperature;BMP_pressure;BME280_temperature;BME280_humidity;BME280_pressure;Samples;Min_cycle;Max_cycle;Signal;HPM_P1;HPM_P2
2023/06/11 00:02:24;;;;;;;29.13;27.43;;;26.20;59.60;;;;;;5055315;28;20487;-55
2023/06/11 00:04:51;;;;;;;28.13;26.60;;;26.10;59.70;;;;;;5054725;28;21015;-53
2023/06/11 00:07:18;;;;;;;27.47;25.87;;;26.10;59.80;;;;;;5054981;28;20448;-52
2023/06/11 00:09:45;;;;;;;28.23;26.63;;;26.10;60.00;;;;;;5054571;28;20559;-53
2023/06/11 00:12:12;;;;;;;27.27;25.87;;;26.00;60.20;;;;;;5054718;28;20480;-54
2023/06/11 00:14:39;;;;;;;29.10;27.13;;;26.00;60.30;;;;;;5054796;28;20467;-53
2023/06/11 00:17:07;;;;;;;27.23;25.87;;;26.00;60.30;;;;;;5054841;28;20537;-56
2023/06/11 00:19:34;;;;;;;28.23;26.83;;;26.00;60.30;;;;;;5054398;28;20479;-52
2023/06/11 00:22:02;;;;;;;27.50;26.10;;;25.90;60.30;;;;;;5054903;28;20528;-54
2023/06/11 00:24:30;;;;;;;27.93;26.33;;;26.00;60.40;;;;;;5054639;28;20996;-53
2023/06/11 00:26:59;;;;;;;29.20;27.47;;;25.90;60.40;;;;;;5054800;28;20440;-54
2023/06/11 00:29:27;;;;;;;27.07;25.70;;;25.90;60.60;;;;;;5054191;28;20444;-54
2023/06/11 00:31:54;;;;;;;27.60;26.20;;;25.90;60.50;;;;;;5054152;28;20452;-54
2023/06/11 00:34:22;;;;;;;28.80;27.30;;;25.90;60.60;;;;;;5054355;28;21020;-56
2023/06/11 00:36:49;;;;;;;27.37;26.00;;;25.90;60.40;;;;;;5054269;28;21058;-55
2023/06/11 00:39:16;;;;;;;27.63;26.10;;;25.80;60.40;;;;;;5054020;28;20444;-56
2023/06/11 00:41:45;;;;;;;26.87;25.57;;;25.80;60.50;;;;;;5054293;28;20539;-53
2023/06/11 00:44:17;;;;;;;27.93;26.53;;;25.90;60.50;;;;;;5053927;28;20472;-53
2023/06/11 00:46:44;;;;;;;28.83;27.30;;;25.80;60.20;;;;;;5054300;28;20480;-52
2023/06/11 00:49:12;;;;;;;27.90;26.40;;;25.80;60.30;;;;;;5053859;28;20528;-53
2023/06/11 00:51:42;;;;;;;26.80;25.50;;;25.80;60.30;;;;;;5054323;28;20451;-55
2023/06/11 00:54:12;;;;;;;28.93;27.27;;;25.70;60.20;;;;;;5054148;28;20491;-55
2023/06/11 00:56:41;;;;;;;29.87;28.27;;;25.70;60.20;;;;;;5054304;28;20483;-56
2023/06/11 00:59:08;;;;;;;26.70;25.40;;;25.70;60.00;;;;;;5053825;28;20899;-55
2023/06/11 01:01:41;;;;;;;26.93;25.53;;;25.70;60.10;;;;;;5054484;28;20480;-54
2023/06/11 01:04:17;;;;;;;28.00;26.50;;;25.70;60.10;;;;;;5053412;28;20479;-57
2023/06/11 01:06:49;;;;;;;27.27;25.77;;;25.70;59.90;;;;;;5053880;28;20440;-56
2023/06/11 01:09:19;;;;;;;26.47;25.17;;;25.70;59.90;;;;;;5053240;28;20458;-53
2023/06/11 01:11:48;;;;;;;27.60;26.20;;;25.70;60.00;;;;;;5053466;28;20491;-53
2023/06/11 01:14:16;;;;;;;27.30;25.83;;;25.60;60.00;;;;;;5053527;28;20805;-55
2023/06/11 01:16:52;;;;;;;26.90;25.50;;;25.60;60.00;;;;;;5053912;28;20484;-55
2023/06/11 01:19:48;;;;;;;27.20;25.90;;;25.50;60.00;;;;;;5053286;28;20509;-57
2023/06/11 01:22:29;;;;;;;27.03;25.73;;;25.50;60.00;;;;;;5053550;28;20950;-54
2023/06/11 01:25:10;;;;;;;27.67;26.27;;;25.50;60.00;;;;;;5053457;28;20464;-55
2023/06/11 01:28:02;;;;;;;27.17;25.80;;;25.50;60.00;;;;;;5053644;28;20875;-55
2023/06/11 01:30:31;;;;;;;27.00;25.70;;;25.50;60.00;;;;;;5052676;28;20443;-56
2023/06/11 01:32:58;;;;;;;26.70;25.30;;;25.50;60.20;;;;;;5052930;28;20517;-56
2023/06/11 01:35:27;;;;;;;26.40;25.10;;;25.40;60.00;;;;;;5053112;28;20580;-53
2023/06/11 01:37:57;;;;;;;27.80;25.97;;;25.40;60.10;;;;;;5052804;28;20456;-56
2023/06/11 01:40:25;;;;;;;26.40;25.10;;;25.40;60.10;;;;;;5052571;28;20979;-54
2023/06/11 01:42:53;;;;;;;27.40;26.10;;;25.40;60.10;;;;;;5052787;28;21055;-54
2023/06/11 01:45:22;;;;;;;30.57;29.17;;;25.40;60.10;;;;;;5052754;28;20529;-52
2023/06/11 01:47:49;;;;;;;26.87;25.47;;;25.40;60.20;;;;;;5052622;28;20515;-57
2023/06/11 01:50:16;;;;;;;27.30;25.90;;;25.40;60.50;;;;;;5052723;28;20451;-55
2023/06/11 01:52:44;;;;;;;27.90;26.50;;;25.40;60.50;;;;;;5052897;28;20471;-52
2023/06/11 01:55:11;;;;;;;27.97;25.90;;;25.40;60.60;;;;;;5052432;28;21034;-55
2023/06/11 01:57:38;;;;;;;26.20;24.90;;;25.40;60.70;;;;;;5052801;28;20483;-56
2023/06/11 02:00:10;;;;;;;26.90;25.40;;;25.40;60.70;;;;;;5052800;28;20468;-54
2023/06/11 02:02:39;;;;;;;25.97;24.77;;;25.40;60.90;;;;;;5052839;28;20440;-54
2023/06/11 02:05:07;;;;;;;26.43;25.20;;;25.40;60.90;;;;;;5052736;28;20994;-54
2023/06/11 02:07:34;;;;;;;28.20;26.60;;;25.40;60.80;;;;;;5052877;28;20536;-52
2023/06/11 02:10:01;;;;;;;27.17;25.77;;;25.40;61.00;;;;;;5052286;28;20448;-56
2023/06/11 02:12:28;;;;;;;27.60;26.10;;;25.40;60.90;;;;;;5052689;28;20951;-53
2023/06/11 02:14:55;;;;;;;27.17;25.77;;;25.40;60.90;;;;;;5052527;28;20551;-57
2023/06/11 02:17:21;;;;;;;26.70;25.30;;;25.40;60.80;;;;;;5051567;28;20570;-56
2023/06/11 02:19:50;;;;;;;27.03;25.60;;;25.30;60.70;;;;;;5052147;28;20487;-56
2023/06/11 02:22:17;;;;;;;26.63;25.33;;;25.40;60.70;;;;;;5052662;28;20860;-56
2023/06/11 02:24:43;;;;;;;27.70;26.30;;;25.40;60.50;;;;;;5052498;28;20543;-52
2023/06/11 02:27:10;;;;;;;27.70;26.20;;;25.40;60.40;;;;;;5052503;28;20540;-53
2023/06/11 02:29:37;;;;;;;26.17;24.87;;;25.40;60.50;;;;;;5051765;28;21065;-53
2023/06/11 02:32:05;;;;;;;25.57;24.27;;;25.40;60.50;;;;;;5052285;28;20833;-55
2023/06/11 02:34:32;;;;;;;26.30;24.90;;;25.40;60.50;;;;;;5052153;28;20551;-55
2023/06/11 02:37:00;;;;;;;26.03;24.77;;;25.40;60.60;;;;;;5052109;28;20567;-53
2023/06/11 02:39:27;;;;;;;27.63;25.90;;;25.40;60.50;;;;;;5051680;28;20530;-52
2023/06/11 02:41:54;;;;;;;26.07;24.80;;;25.40;61.30;;;;;;5052086;28;20479;-54
2023/06/11 02:44:21;;;;;;;27.23;25.63;;;25.30;60.60;;;;;;5051804;28;21053;-52
2023/06/11 02:46:48;;;;;;;28.17;26.67;;;25.30;60.80;;;;;;5051585;28;20851;-52
2023/06/11 02:49:15;;;;;;;26.40;25.00;;;25.40;60.80;;;;;;5051717;28;20480;-52
2023/06/11 02:51:42;;;;;;;27.70;26.30;;;25.30;60.60;;;;;;5051786;28;21038;-53
2023/06/11 02:54:10;;;;;;;27.67;26.17;;;25.40;60.80;;;;;;5051558;28;21043;-53
2023/06/11 02:56:37;;;;;;;26.70;25.40;;;25.40;60.70;;;;;;5051675;28;20566;-56
2023/06/11 02:59:05;;;;;;;26.50;25.20;;;25.40;61.00;;;;;;5051176;28;20455;-53
2023/06/11 03:01:32;;;;;;;27.57;26.07;;;25.40;60.90;;;;;;5051578;28;20459;-54
2023/06/11 03:03:59;;;;;;;26.80;25.50;;;25.40;61.00;;;;;;5051932;28;20536;-53
2023/06/11 03:06:26;;;;;;;27.33;25.93;;;25.30;61.10;;;;;;5051579;28;20448;-57
2023/06/11 03:08:53;;;;;;;27.83;26.43;;;25.30;61.60;;;;;;5051461;28;20531;-53
2023/06/11 03:11:21;;;;;;;27.50;26.00;;;25.30;61.80;;;;;;5053053;28;20448;-53
2023/06/11 03:13:48;;;;;;;26.40;25.03;;;25.30;62.00;;;;;;5052132;28;21030;-52
2023/06/11 03:16:15;;;;;;;27.47;25.60;;;25.40;63.50;;;;;;5051083;28;20511;-51
2023/06/11 03:18:43;;;;;;;26.80;25.57;;;25.50;63.40;;;;;;5050548;28;20853;-50
2023/06/11 03:21:10;;;;;;;25.60;24.30;;;25.50;63.00;;;;;;5050736;28;20521;-54
2023/06/11 03:23:38;;;;;;;25.80;24.40;;;25.60;62.80;;;;;;5051316;28;20464;-56
2023/06/11 03:26:05;;;;;;;25.67;24.47;;;25.60;62.40;;;;;;5051122;28;20440;-50
2023/06/11 03:28:33;;;;;;;26.63;25.23;;;25.60;62.60;;;;;;5052961;28;20494;-51
2023/06/11 03:31:00;;;;;;;25.67;24.30;;;25.70;62.30;;;;;;5054997;28;20456;-52
2023/06/11 03:33:27;;;;;;;25.60;24.40;;;25.70;62.40;;;;;;5054976;28;20503;-56
2023/06/11 03:35:54;;;;;;;26.27;24.90;;;25.50;62.00;;;;;;5054879;28;20527;-49
2023/06/11 03:38:20;;;;;;;25.40;24.10;;;25.50;62.00;;;;;;5054436;28;21002;-51
2023/06/11 03:40:48;;;;;;;25.77;24.57;;;25.50;61.90;;;;;;5055352;28;20881;-51
2023/06/11 03:43:14;;;;;;;26.40;25.10;;;25.60;61.70;;;;;;5054911;28;20862;-50
2023/06/11 03:45:43;;;;;;;27.40;25.80;;;25.50;61.90;;;;;;5054886;28;20871;-51
2023/06/11 03:48:09;;;;;;;26.57;25.17;;;25.50;62.30;;;;;;5054525;28;20535;-51
2023/06/11 03:50:36;;;;;;;26.47;24.80;;;25.60;64.20;;;;;;5054764;28;20539;-50
2023/06/11 03:53:03;;;;;;;27.43;25.93;;;25.60;63.20;;;;;;5054502;28;20539;-57
2023/06/11 04:06:43;;;;;;;28.13;26.63;;;25.60;62.40;;;;;;5102000;27;20665;-49
2023/06/11 04:09:10;;;;;;;27.40;26.00;;;25.90;62.10;;;;;;5071397;28;20450;-51
2023/06/11 04:11:37;;;;;;;28.03;26.50;;;26.00;61.80;;;;;;5069236;28;20963;-49
2023/06/11 04:14:04;;;;;;;27.53;26.20;;;26.00;61.90;;;;;;5068474;28;20522;-50
2023/06/11 04:16:30;;;;;;;28.77;27.07;;;25.90;62.10;;;;;;5068345;28;20499;-50
2023/06/11 04:18:57;;;;;;;30.10;28.10;;;25.90;63.90;;;;;;5054292;28;20482;-50
2023/06/11 04:21:24;;;;;;;27.53;25.90;;;25.90;64.50;;;;;;5048484;28;20483;-52
2023/06/11 04:23:53;;;;;;;27.13;25.83;;;25.80;64.50;;;;;;5048439;28;20448;-49
2023/06/11 04:26:20;;;;;;;27.40;25.93;;;25.80;64.70;;;;;;5048123;28;20496;-49
2023/06/11 04:28:48;;;;;;;27.07;25.67;;;25.70;64.70;;;;;;5060506;28;20451;-49
2023/06/11 04:31:15;;;;;;;28.23;26.60;;;25.80;66.00;;;;;;5068106;28;20451;-51
2023/06/11 04:33:42;;;;;;;28.40;27.00;;;25.70;65.40;;;;;;5068363;28;20873;-52
2023/06/11 04:36:09;;;;;;;26.03;24.83;;;25.70;65.90;;;;;;5067863;28;20908;-51
2023/06/11 04:38:37;;;;;;;27.80;26.40;;;25.80;66.00;;;;;;5057042;28;20448;-52
2023/06/11 04:41:06;;;;;;;27.93;26.53;;;25.90;65.40;;;;;;5048071;28;20470;-52
2023/06/11 04:43:34;;;;;;;26.97;25.67;;;25.80;65.40;;;;;;5048138;28;20456;-51
2023/06/11 04:46:04;;;;;;;27.20;25.90;;;25.90;65.00;;;;;;5047946;28;20465;-49
2023/06/11 04:48:32;;;;;;;27.37;26.07;;;25.90;64.60;;;;;;5049371;28;20484;-51
2023/06/11 04:51:00;;;;;;;26.90;25.50;;;26.00;65.20;;;;;;5058822;28;20958;-53
2023/06/11 04:53:28;;;;;;;28.90;27.40;;;26.00;65.20;;;;;;5047875;28;20448;-50
2023/06/11 04:55:57;;;;;;;26.93;25.63;;;26.00;64.70;;;;;;5047572;28;20598;-49
2023/06/11 04:58:26;;;;;;;26.23;25.03;;;26.00;64.70;;;;;;5056145;28;20443;-49
2023/06/11 05:00:56;;;;;;;27.80;26.30;;;26.00;65.00;;;;;;5067664;28;20861;-49
2023/06/11 05:03:24;;;;;;;28.23;26.50;;;26.10;65.10;;;;;;5053455;28;20483;-49
2023/06/11 05:05:52;;;;;;;28.13;26.63;;;26.10;65.50;;;;;;5057468;28;20518;-48
2023/06/11 05:08:20;;;;;;;27.33;25.93;;;26.10;65.70;;;;;;5061700;28;20475;-49
2023/06/11 05:10:47;;;;;;;26.30;25.10;;;26.20;65.60;;;;;;5074083;28;20950;-49
2023/06/11 05:13:14;;;;;;;26.17;24.80;;;26.10;65.30;;;;;;5074155;28;20543;-50
2023/06/11 05:15:42;;;;;;;26.80;25.17;;;26.20;65.40;;;;;;5073841;28;20574;-48
2023/06/11 05:18:09;;;;;;;27.37;25.77;;;26.20;65.20;;;;;;5068714;28;20480;-49
2023/06/11 05:20:36;;;;;;;26.53;25.23;;;26.20;65.30;;;;;;5054056;28;20487;-50
2023/06/11 05:23:03;;;;;;;26.50;25.30;;;26.20;65.40;;;;;;5054131;28;20529;-49
2023/06/11 05:25:31;;;;;;;26.83;25.53;;;26.30;65.20;;;;;;5053737;28;20444;-51
2023/06/11 05:28:00;;;;;;;27.47;26.07;;;26.30;65.40;;;;;;5056573;28;20472;-51
2023/06/11 05:30:29;;;;;;;27.10;25.70;;;26.30;65.80;;;;;;5066520;28;20450;-54
2023/06/11 05:32:58;;;;;;;28.93;27.43;;;26.30;66.10;;;;;;5053762;28;20931;-49
2023/06/11 05:35:25;;;;;;;29.90;28.40;;;26.30;66.10;;;;;;5053696;28;20538;-49
2023/06/11 05:37:52;;;;;;;32.07;30.17;;;26.40;66.30;;;;;;5054499;28;20496;-50
2023/06/11 05:40:19;;;;;;;29.90;28.30;;;26.50;68.90;;;;;;5057558;28;20448;-52
2023/06/11 05:42:46;;;;;;;29.47;27.97;;;26.50;67.70;;;;;;5057436;28;20551;-49
2023/06/11 05:45:13;;;;;;;28.50;27.00;;;26.50;66.50;;;;;;5068253;28;20493;-49
2023/06/11 05:47:40;;;;;;;28.40;26.83;;;26.60;66.20;;;;;;5062980;28;20503;-51
2023/06/11 05:50:09;;;;;;;28.83;27.20;;;26.60;66.00;;;;;;5053505;28;20531;-52
2023/06/11 05:52:36;;;;;;;27.93;26.53;;;26.60;65.40;;;;;;5053541;28;20534;-50
2023/06/11 05:55:03;;;;;;;29.20;27.80;;;26.60;65.00;;;;;;5053390;28;20566;-52
2023/06/11 05:57:30;;;;;;;28.73;27.43;;;26.60;64.80;;;;;;5054575;28;20846;-51
2023/06/11 05:59:57;;;;;;;27.47;26.07;;;26.70;64.90;;;;;;5069130;28;20626;-51
2023/06/11 06:02:24;;;;;;;29.30;27.80;;;26.70;64.70;;;;;;5064352;28;20476;-50
2023/06/11 06:04:51;;;;;;;27.80;26.50;;;26.70;64.30;;;;;;5054364;28;20486;-58
2023/06/11 06:07:19;;;;;;;28.10;26.60;;;26.70;64.50;;;;;;5052951;28;20503;-55
2023/06/11 06:09:46;;;;;;;28.00;26.67;;;26.70;64.40;;;;;;5054570;28;20444;-57
2023/06/11 06:12:13;;;;;;;28.53;27.23;;;26.70;64.70;;;;;;5062661;28;20487;-54
2023/06/11 06:14:41;;;;;;;27.83;26.43;;;26.70;64.60;;;;;;5055783;28;20480;-58
2023/06/11 06:17:08;;;;;;;27.53;26.23;;;26.70;64.60;;;;;;5065379;28;21029;-56
2023/06/11 06:19:34;;;;;;;27.20;25.90;;;26.80;63.90;;;;;;5066476;28;20492;-55
2023/06/11 06:22:01;;;;;;;27.37;26.07;;;26.80;63.70;;;;;;5072108;28;20518;-56
2023/06/11 06:24:30;;;;;;;27.37;26.07;;;26.80;63.20;;;;;;5067484;28;20472;-53
2023/06/11 06:26:58;;;;;;;27.90;26.37;;;26.80;63.20;;;;;;5069182;28;20953;-52
2023/06/11 06:29:26;;;;;;;26.47;25.27;;;26.90;63.30;;;;;;5072356;28;20525;-51
2023/06/11 06:31:53;;;;;;;28.20;26.80;;;26.90;62.90;;;;;;5055123;28;20487;-54
2023/06/11 06:34:20;;;;;;;27.80;26.50;;;26.90;63.00;;;;;;5059376;28;20551;-51
2023/06/11 06:36:47;;;;;;;27.40;26.00;;;26.90;63.40;;;;;;5061469;28;20571;-53
2023/06/11 06:39:14;;;;;;;28.23;26.80;;;26.90;63.00;;;;;;5064496;28;20501;-55
2023/06/11 06:41:42;;;;;;;29.60;28.00;;;27.00;62.40;;;;;;5055418;28;20452;-51
2023/06/11 06:44:09;;;;;;;27.00;25.70;;;27.00;62.30;;;;;;5057106;28;20482;-56
2023/06/11 06:46:36;;;;;;;29.40;27.70;;;27.00;62.50;;;;;;5070440;28;20562;-56
2023/06/11 06:49:03;;;;;;;29.40;27.90;;;27.00;63.20;;;;;;5062505;28;20889;-57
2023/06/11 06:51:31;;;;;;;27.90;26.50;;;27.00;65.30;;;;;;5064228;28;20479;-56
2023/06/11 06:53:58;;;;;;;29.43;27.73;;;27.00;67.30;;;;;;5052708;28;20476;-56
2023/06/11 06:56:26;;;;;;;29.83;26.93;;;27.00;68.40;;;;;;5066096;28;20664;-55
2023/06/11 06:58:55;;;;;;;28.00;26.43;;;27.00;69.90;;;;;;5061386;28;20560;-55
2023/06/11 07:01:22;;;;;;;28.27;26.70;;;26.90;66.60;;;;;;5066712;28;20493;-54
2023/06/11 07:03:48;;;;;;;29.77;28.17;;;26.90;65.00;;;;;;5071303;28;20534;-57
2023/06/11 07:06:15;;;;;;;29.80;28.03;;;27.00;64.70;;;;;;5071748;28;20563;-60
2023/06/11 07:08:42;;;;;;;28.83;27.07;;;27.10;65.30;;;;;;5071964;28;20486;-58
2023/06/11 07:11:09;;;;;;;28.43;26.93;;;27.10;65.50;;;;;;5067258;28;20887;-65
2023/06/11 07:13:36;;;;;;;28.70;27.23;;;27.10;64.50;;;;;;5052111;28;20468;-64
2023/06/11 07:16:05;;;;;;;28.43;27.13;;;27.10;64.00;;;;;;5051615;28;20574;-64
2023/06/11 07:18:32;;;;;;;28.23;26.83;;;27.10;64.10;;;;;;5051961;28;20455;-64
2023/06/11 07:20:59;;;;;;;29.73;28.23;;;27.10;64.10;;;;;;5054726;28;20447;-64
2023/06/11 07:23:26;;;;;;;28.43;27.07;;;27.10;64.20;;;;;;5071777;28;20475;-65
2023/06/11 07:25:55;;;;;;;28.03;26.43;;;27.10;64.50;;;;;;5071304;28;20470;-62
2023/06/11 07:28:22;;;;;;;28.60;26.83;;;27.10;65.00;;;;;;5071668;28;20451;-66
2023/06/11 07:30:49;;;;;;;28.17;26.87;;;27.20;65.80;;;;;;5070819;28;20958;-65
2023/06/11 07:33:17;;;;;;;28.53;27.00;;;27.10;65.40;;;;;;5071668;28;20448;-55
2023/06/11 07:35:45;;;;;;;29.00;27.53;;;27.10;65.50;;;;;;5071222;28;20590;-57
2023/06/11 07:38:12;;;;;;;28.23;26.83;;;27.00;65.90;;;;;;5071488;28;20459;-56
2023/06/11 07:40:39;;;;;;;28.53;27.03;;;27.00;65.20;;;;;;5071594;28;20479;-58
2023/06/11 07:43:06;;;;;;;27.67;26.27;;;27.00;65.20;;;;;;5071448;28;20527;-57
2023/06/11 07:45:33;;;;;;;29.40;27.20;;;26.90;65.10;;;;;;5071356;28;20443;-58
2023/06/11 07:48:00;;;;;;;27.57;26.27;;;26.90;65.20;;;;;;5071374;28;20562;-57
2023/06/11 07:50:28;;;;;;;28.30;26.90;;;26.90;65.00;;;;;;5071421;28;20454;-56
2023/06/11 07:52:56;;;;;;;28.17;26.77;;;26.90;65.00;;;;;;5071491;28;20479;-56
2023/06/11 07:55:23;;;;;;;28.07;26.77;;;26.90;65.00;;;;;;5071284;28;20532;-58
2023/06/11 07:57:50;;;;;;;27.43;26.13;;;26.90;65.00;;;;;;5071365;28;21035;-58
2023/06/11 08:00:17;;;;;;;27.50;26.20;;;26.90;65.00;;;;;;5071470;28;20439;-57
2023/06/11 08:02:44;;;;;;;26.67;25.37;;;26.90;65.10;;;;;;5071355;28;20479;-59
2023/06/11 08:05:17;;;;;;;27.70;26.40;;;26.90;65.00;;;;;;5071154;28;20455;-57
2023/06/11 08:07:45;;;;;;;27.17;25.87;;;26.90;65.00;;;;;;5071273;28;20490;-55
2023/06/11 08:10:12;;;;;;;27.37;26.00;;;26.90;65.00;;;;;;5071259;28;20761;-58
2023/06/11 08:12:39;;;;;;;27.60;26.30;;;26.90;65.00;;;;;;5071250;28;20475;-58
2023/06/11 08:15:07;;;;;;;29.00;27.50;;;26.90;65.00;;;;;;5071122;28;20530;-57
2023/06/11 08:17:34;;;;;;;27.50;26.10;;;26.90;65.00;;;;;;5070862;28;20494;-57
2023/06/11 08:20:05;;;;;;;27.53;26.23;;;26.90;65.00;;;;;;5071196;28;20542;-57
2023/06/11 08:22:32;;;;;;;27.53;26.13;;;26.90;65.00;;;;;;5071171;28;20974;-57
2023/06/11 08:25:01;;;;;;;27.70;26.23;;;26.80;64.90;;;;;;5071019;28;20482;-58
2023/06/11 08:27:27;;;;;;;26.40;25.20;;;26.80;65.00;;;;;;5070797;28;20490;-57
2023/06/11 08:29:54;;;;;;;26.93;25.73;;;26.80;64.90;;;;;;5071026;28;20879;-57
2023/06/11 08:32:21;;;;;;;27.43;26.13;;;26.90;65.00;;;;;;5071013;28;20875;-57
2023/06/11 08:34:48;;;;;;;28.00;26.70;;;26.80;64.90;;;;;;5070982;28;20874;-57
2023/06/11 08:37:15;;;;;;;27.30;26.00;;;26.80;65.00;;;;;;5070683;28;20884;-57
2023/06/11 08:39:42;;;;;;;26.93;25.73;;;26.80;64.90;;;;;;5070881;28;20451;-57
2023/06/11 08:42:10;;;;;;;27.87;26.57;;;26.80;64.90;;;;;;5073179;28;20937;-58
2023/06/11 08:44:38;;;;;;;26.67;25.47;;;26.80;64.90;;;;;;5074664;28;20882;-58
2023/06/11 08:47:05;;;;;;;27.57;26.27;;;26.80;65.00;;;;;;5074318;28;20499;-55
2023/06/11 08:49:32;;;;;;;27.50;26.20;;;26.80;64.90;;;;;;5074650;28;20474;-58
2023/06/11 08:52:03;;;;;;;27.33;26.00;;;26.90;65.00;;;;;;5074514;28;20483;-59
2023/06/11 08:54:31;;;;;;;27.20;25.80;;;26.90;64.90;;;;;;5074555;28;20487;-58
2023/06/11 08:56:58;;;;;;;27.73;26.43;;;26.80;64.80;;;;;;5074089;28;20569;-58
2023/06/11 08:59:26;;;;;;;28.07;26.77;;;26.80;64.90;;;;;;5074355;28;20451;-58
2023/06/11 09:01:53;;;;;;;27.37;25.77;;;26.80;65.00;;;;;;5074419;28;20493;-58
2023/06/11 09:04:21;;;;;;;28.50;27.00;;;26.80;64.90;;;;;;5074164;28;20486;-57
2023/06/11 09:06:52;;;;;;;27.50;26.20;;;26.80;64.80;;;;;;5073930;28;20884;-57
2023/06/11 09:09:19;;;;;;;28.00;26.50;;;26.80;64.80;;;;;;5074236;28;20493;-58
2023/06/11 09:11:46;;;;;;;29.40;27.37;;;26.90;64.80;;;;;;5074200;28;20461;-58
2023/06/11 09:14:13;;;;;;;27.13;25.93;;;26.90;64.90;;;;;;5074144;28;20431;-58
2023/06/11 09:16:42;;;;;;;28.97;27.57;;;26.90;64.90;;;;;;5073862;28;20537;-59
2023/06/11 09:19:12;;;;;;;27.67;26.37;;;26.80;64.70;;;;;;5073935;28;20486;-59
2023/06/11 09:21:39;;;;;;;26.97;25.67;;;26.90;64.80;;;;;;5073978;28;20448;-59
2023/06/11 09:24:09;;;;;;;27.50;26.20;;;26.90;64.80;;;;;;5064615;28;20445;-59
2023/06/11 09:26:36;;;;;;;27.40;26.10;;;26.90;64.80;;;;;;5059829;28;20488;-59
2023/06/11 09:29:05;;;;;;;27.63;26.37;;;26.90;65.00;;;;;;5057264;28;20468;-57
2023/06/11 09:31:32;;;;;;;28.57;27.17;;;26.90;66.60;;;;;;5053857;28;21139;-52
2023/06/11 09:34:06;;;;;;;27.70;26.30;;;27.00;66.80;;;;;;5053662;28;20480;-54
2023/06/11 09:36:32;;;;;;;27.70;26.40;;;27.00;66.10;;;;;;5056165;28;20491;-56
2023/06/11 09:39:00;;;;;;;28.10;26.63;;;27.10;65.50;;;;;;5054031;28;20539;-55
2023/06/11 09:41:27;;;;;;;28.13;26.80;;;27.10;64.80;;;;;;5053579;28;21021;-57
2023/06/11 09:43:55;;;;;;;28.40;27.07;;;27.20;64.40;;;;;;5053507;28;20487;-56
2023/06/11 09:46:24;;;;;;;28.50;27.10;;;27.20;64.00;;;;;;5053244;28;20460;-58
2023/06/11 09:48:51;;;;;;;28.67;27.37;;;27.30;63.50;;;;;;5063552;28;20475;-58
2023/06/11 09:51:23;;;;;;;28.00;26.60;;;27.30;62.70;;;;;;5073548;28;20471;-58
2023/06/11 09:53:51;;;;;;;28.13;26.73;;;27.40;62.40;;;;;;5073498;28;20818;-55
2023/06/11 09:56:19;;;;;;;29.63;28.03;;;27.40;61.90;;;;;;5073139;28;20928;-53
2023/06/11 09:58:48;;;;;;;27.57;26.17;;;27.50;61.50;;;;;;5071579;28;20440;-52
2023/06/11 10:01:16;;;;;;;28.80;27.40;;;27.50;62.50;;;;;;5073262;28;20864;-64
2023/06/11 10:03:43;;;;;;;28.53;27.13;;;27.60;62.20;;;;;;5073286;28;20504;-63
2023/06/11 10:06:15;;;;;;;27.57;26.27;;;27.60;61.70;;;;;;5072910;28;20503;-52
2023/06/11 10:08:48;;;;;;;28.80;27.40;;;27.60;61.50;;;;;;5071841;28;20482;-52
2023/06/11 10:11:17;;;;;;;28.83;27.37;;;27.60;61.10;;;;;;5073951;28;20795;-54
2023/06/11 10:13:58;;;;;;;28.87;27.30;;;27.70;60.70;;;;;;5073247;28;20479;-53
2023/06/11 10:16:25;;;;;;;28.73;27.33;;;27.70;60.90;;;;;;5072791;28;21008;-52
2023/06/11 10:18:52;;;;;;;28.47;26.90;;;27.70;60.60;;;;;;5067864;28;20445;-55
2023/06/11 10:21:19;;;;;;;29.77;28.17;;;27.80;60.50;;;;;;5072385;28;20475;-51
2023/06/11 10:23:54;;;;;;;29.37;27.67;;;27.80;59.80;;;;;;5072943;28;20483;-53
2023/06/11 10:26:21;;;;;;;28.27;26.87;;;27.80;59.20;;;;;;5072641;28;20465;-56
2023/06/11 10:28:51;;;;;;;29.60;28.00;;;27.80;59.40;;;;;;5069557;28;20497;-52
2023/06/11 10:31:25;;;;;;;28.67;27.27;;;27.80;59.20;;;;;;5058220;28;20453;-53
2023/06/11 10:33:53;;;;;;;28.83;27.43;;;27.80;58.90;;;;;;5052782;28;20452;-56
2023/06/11 10:36:24;;;;;;;27.97;26.50;;;27.80;59.00;;;;;;5057428;28;20511;-53
2023/06/11 10:38:52;;;;;;;27.80;26.40;;;27.90;59.10;;;;;;5056967;28;20483;-53
2023/06/11 10:41:29;;;;;;;29.30;27.80;;;27.90;58.40;;;;;;5052505;28;20531;-54
2023/06/11 10:43:57;;;;;;;29.20;27.60;;;27.90;58.60;;;;;;5052574;28;20440;-58
2023/06/11 10:46:24;;;;;;;27.83;26.43;;;27.90;58.60;;;;;;5053513;28;20475;-55
2023/06/11 10:48:52;;;;;;;28.37;26.93;;;27.90;59.30;;;;;;5052680;28;20483;-55
2023/06/11 10:51:20;;;;;;;30.10;28.50;;;28.00;58.00;;;;;;5052445;28;20455;-56
2023/06/11 10:53:58;;;;;;;28.87;27.37;;;28.00;57.50;;;;;;5052237;28;20452;-55
2023/06/11 10:56:25;;;;;;;27.87;26.47;;;28.00;55.70;;;;;;5056508;28;20897;-58
2023/06/11 10:58:53;;;;;;;28.03;26.53;;;28.00;54.70;;;;;;5072192;28;20529;-50
2023/06/11 11:01:20;;;;;;;28.43;26.83;;;28.10;55.50;;;;;;5072059;28;20498;-58
2023/06/11 11:03:48;;;;;;;28.30;26.90;;;28.10;53.60;;;;;;5071565;28;20958;-55
2023/06/11 11:06:25;;;;;;;28.90;27.40;;;28.10;53.20;;;;;;5069346;28;20503;-51
2023/06/11 11:08:52;;;;;;;28.80;27.40;;;28.10;52.30;;;;;;5052099;28;20474;-53
2023/06/11 11:11:22;;;;;;;27.57;26.27;;;28.10;52.60;;;;;;5051978;28;20829;-55
2023/06/11 11:13:49;;;;;;;26.97;25.67;;;28.10;53.30;;;;;;5052012;28;20472;-57
2023/06/11 11:16:18;;;;;;;28.33;26.83;;;28.10;52.30;;;;;;5053332;28;20496;-57
2023/06/11 11:18:46;;;;;;;27.40;25.93;;;28.10;52.30;;;;;;5071854;28;20478;-53
2023/06/11 11:21:13;;;;;;;27.43;26.13;;;28.10;52.20;;;;;;5071879;28;20946;-55
2023/06/11 11:23:40;;;;;;;28.80;27.27;;;28.10;52.80;;;;;;5068447;28;20883;-60
2023/06/11 11:26:07;;;;;;;29.00;27.50;;;28.20;53.20;;;;;;5071849;28;20510;-60
2023/06/11 11:28:35;;;;;;;28.23;26.83;;;28.20;53.30;;;;;;5071859;28;20452;-59
2023/06/11 11:31:04;;;;;;;29.40;27.70;;;28.20;53.70;;;;;;5071713;28;21021;-58
2023/06/11 11:33:34;;;;;;;28.23;26.50;;;28.20;52.60;;;;;;5066069;28;20452;-58
2023/06/11 11:36:03;;;;;;;28.80;27.00;;;28.20;52.70;;;;;;5066022;28;20879;-57
2023/06/11 11:38:35;;;;;;;29.83;28.10;;;28.20;53.60;;;;;;5071407;28;20521;-53
2023/06/11 11:41:02;;;;;;;28.10;26.70;;;28.20;52.60;;;;;;5071622;28;20443;-56
2023/06/11 11:43:38;;;;;;;27.20;25.77;;;28.30;51.70;;;;;;5069840;28;20479;-51
2023/06/11 11:46:16;;;;;;;29.33;27.73;;;28.30;51.40;;;;;;5060331;28;20468;-51
2023/06/11 11:48:43;;;;;;;28.57;27.10;;;28.30;51.80;;;;;;5051443;28;20444;-55
2023/06/11 11:51:11;;;;;;;29.50;27.80;;;28.30;50.80;;;;;;5051374;28;20451;-51
2023/06/11 11:53:38;;;;;;;26.97;25.67;;;28.30;50.60;;;;;;5062015;28;20453;-55
2023/06/11 11:56:06;;;;;;;29.23;27.70;;;28.30;50.40;;;;;;5071100;28;20499;-52
2023/06/11 11:58:38;;;;;;;27.70;26.30;;;28.30;49.90;;;;;;5071196;28;20835;-53
2023/06/11 12:01:08;;;;;;;27.67;26.27;;;28.30;49.70;;;;;;5071312;28;20447;-55
2023/06/11 12:03:36;;;;;;;27.60;26.20;;;28.30;49.80;;;;;;5063515;28;20448;-52
2023/06/11 12:06:05;;;;;;;29.00;27.40;;;28.30;49.30;;;;;;5071074;28;20956;-50
2023/06/11 12:08:33;;;;;;;28.07;26.20;;;28.30;49.80;;;;;;5071321;28;20960;-52
2023/06/11 12:11:01;;;;;;;27.93;26.53;;;28.40;49.30;;;;;;5071269;28;20880;-51
2023/06/11 12:13:28;;;;;;;28.43;27.00;;;28.30;49.70;;;;;;5062149;28;20502;-52
2023/06/11 12:15:57;;;;;;;27.87;26.47;;;28.30;49.60;;;;;;5051198;28;20491;-56
2023/06/11 12:18:24;;;;;;;28.23;26.83;;;28.30;49.70;;;;;;5055130;28;20566;-52
2023/06/11 12:20:51;;;;;;;27.93;26.47;;;28.30;49.00;;;;;;5055342;28;20490;-51
2023/06/11 12:23:18;;;;;;;28.30;26.90;;;28.30;49.40;;;;;;5062151;28;20970;-51
2023/06/11 12:25:45;;;;;;;27.60;26.20;;;28.30;49.60;;;;;;5074521;28;20502;-51
2023/06/11 12:28:12;;;;;;;27.53;26.13;;;28.30;49.60;;;;;;5074839;28;20497;-51
2023/06/11 12:30:39;;;;;;;28.63;27.13;;;28.20;49.20;;;;;;5074949;28;20960;-53
2023/06/11 12:33:07;;;;;;;28.23;26.83;;;28.30;49.10;;;;;;5069422;28;20483;-51
2023/06/11 12:35:37;;;;;;;28.20;26.80;;;28.30;48.90;;;;;;5054609;28;20455;-52
2023/06/11 12:38:04;;;;;;;28.67;27.27;;;28.20;48.70;;;;;;5054808;28;20511;-54
2023/06/11 12:40:31;;;;;;;28.03;26.60;;;28.20;48.80;;;;;;5054785;28;20494;-55
2023/06/11 12:42:59;;;;;;;27.70;26.30;;;28.20;48.60;;;;;;5067698;28;20479;-52
2023/06/11 12:45:27;;;;;;;29.33;27.83;;;28.20;48.80;;;;;;5074402;28;20964;-52